createdAt,value
2022-10-15T00:04:24.482Z,0
2022-10-15T00:09:24.460Z,0
2022-10-15T00:14:24.490Z,0
2022-10-15T00:24:40.028Z,0
2022-10-15T00:29:26.568Z,0
2022-10-15T00:34:24.626Z,0
2022-10-15T00:39:24.855Z,0
2022-10-15T00:44:24.830Z,0
2022-10-15T00:49:24.640Z,0
2022-10-15T00:54:24.566Z,0
2022-10-15T00:59:24.586Z,0
2022-10-15T01:04:24.504Z,0
2022-10-15T01:09:24.601Z,0
2022-10-15T01:14:24.526Z,0
2022-10-15T01:19:24.516Z,0
2022-10-15T01:24:24.568Z,0
2022-10-15T01:29:24.611Z,0
2022-10-15T01:34:24.574Z,0
2022-10-15T01:39:24.630Z,0
2022-10-15T01:44:24.605Z,0
2022-10-15T01:49:24.471Z,0
2022-10-15T01:54:24.661Z,0
2022-10-15T01:59:24.622Z,0
2022-10-15T02:04:24.565Z,0
2022-10-15T02:09:24.656Z,0
2022-10-15T02:14:24.565Z,0
2022-10-15T02:19:24.541Z,0
2022-10-15T02:24:24.480Z,0
2022-10-15T02:29:24.532Z,0
2022-10-15T02:34:24.497Z,0
2022-10-15T02:39:24.516Z,0
2022-10-15T02:44:24.504Z,0
2022-10-15T02:49:24.520Z,0
2022-10-15T02:54:24.494Z,0
2022-10-15T02:59:24.476Z,0
2022-10-15T03:04:24.485Z,0
2022-10-15T03:09:24.527Z,0
2022-10-15T03:14:24.613Z,0
2022-10-15T03:19:24.513Z,0
2022-10-15T03:24:24.522Z,0
2022-10-15T03:29:24.588Z,0
2022-10-15T03:34:24.489Z,0
2022-10-15T03:39:24.529Z,0
2022-10-15T03:44:24.540Z,0
2022-10-15T03:49:24.522Z,0
2022-10-15T03:54:24.507Z,0
2022-10-15T03:59:24.582Z,0
2022-10-15T04:04:24.566Z,0
2022-10-15T04:09:24.541Z,0
2022-10-15T04:14:24.586Z,0
2022-10-15T04:19:24.525Z,0
2022-10-15T04:24:24.497Z,0
2022-10-15T04:29:24.779Z,0
2022-10-15T04:34:24.534Z,0
2022-10-15T04:39:24.577Z,0
2022-10-15T04:44:24.547Z,0
2022-10-15T04:49:24.519Z,0
2022-10-15T04:54:24.579Z,0
2022-10-15T04:59:24.550Z,0
2022-10-15T05:04:24.577Z,0
2022-10-15T05:09:24.505Z,0
2022-10-15T05:14:24.600Z,0
2022-10-15T05:19:24.568Z,0
2022-10-15T05:24:24.530Z,0
2022-10-15T05:29:24.559Z,0
2022-10-15T05:34:24.514Z,0
2022-10-15T05:39:24.539Z,0
2022-10-15T05:44:24.511Z,0
2022-10-15T05:49:24.541Z,0
2022-10-15T05:54:24.576Z,0
2022-10-15T05:59:24.591Z,0
2022-10-15T06:04:24.596Z,267
2022-10-15T06:09:24.565Z,266
2022-10-15T06:14:24.624Z,266
2022-10-15T06:19:24.602Z,267
2022-10-15T06:24:24.560Z,0
2022-10-15T06:29:24.545Z,267
2022-10-15T06:34:24.568Z,268
2022-10-15T06:39:24.621Z,268
2022-10-15T06:44:24.552Z,269
2022-10-15T06:49:24.592Z,271
2022-10-15T06:54:24.584Z,272
2022-10-15T06:59:24.575Z,269
2022-10-15T07:04:24.588Z,271
2022-10-15T07:09:24.586Z,277
2022-10-15T07:14:24.560Z,287
2022-10-15T07:19:24.677Z,280
2022-10-15T07:24:24.566Z,280
2022-10-15T07:29:24.537Z,278
2022-10-15T07:34:24.591Z,279
2022-10-15T07:39:24.559Z,280
2022-10-15T07:44:24.623Z,284
2022-10-15T07:49:24.570Z,281
2022-10-15T07:54:24.665Z,285
2022-10-15T07:59:24.565Z,286
2022-10-15T08:04:24.692Z,280
2022-10-15T08:09:24.573Z,277
2022-10-15T08:14:24.554Z,279
2022-10-15T08:19:24.620Z,275
2022-10-15T08:24:24.571Z,277
2022-10-15T08:29:24.590Z,283
2022-10-15T08:34:28.496Z,286
2022-10-15T08:39:24.569Z,289
2022-10-15T08:44:24.606Z,282
2022-10-15T08:49:24.578Z,282
2022-10-15T08:54:24.538Z,282
2022-10-15T08:59:24.578Z,291
2022-10-15T09:04:24.639Z,289
2022-10-15T09:09:24.641Z,308
2022-10-15T09:14:24.572Z,294
2022-10-15T09:19:24.574Z,299
2022-10-15T09:24:24.611Z,315
2022-10-15T09:29:24.736Z,297
2022-10-15T09:34:24.578Z,304
2022-10-15T09:39:24.615Z,334
2022-10-15T09:44:24.652Z,384
2022-10-15T09:49:24.556Z,370
2022-10-15T09:54:24.662Z,355
2022-10-15T09:59:24.751Z,348
2022-10-15T10:04:24.631Z,318
2022-10-15T10:09:24.636Z,310
2022-10-15T10:14:24.635Z,306
2022-10-15T10:19:24.596Z,315
2022-10-15T10:24:25.780Z,329
2022-10-15T10:29:34.974Z,343
2022-10-15T10:34:24.559Z,335
2022-10-15T10:39:24.553Z,363
2022-10-15T10:44:24.563Z,405
2022-10-15T10:49:24.596Z,350
2022-10-15T10:54:24.606Z,385
2022-10-15T10:59:24.750Z,422
2022-10-15T11:04:24.631Z,472
2022-10-15T11:09:24.722Z,442
2022-10-15T11:14:24.635Z,457
2022-10-15T11:19:50.708Z,410
2022-10-15T11:24:24.762Z,357
2022-10-15T11:29:24.630Z,349
2022-10-15T11:34:24.645Z,353
2022-10-15T11:39:24.592Z,380
2022-10-15T11:44:24.589Z,341
2022-10-15T11:49:24.721Z,331
2022-10-15T11:54:24.702Z,287
2022-10-15T11:59:24.740Z,296
2022-10-15T12:04:26.710Z,273
2022-10-15T12:09:24.627Z,276
2022-10-15T12:14:24.661Z,283
2022-10-15T12:19:24.667Z,280
2022-10-15T12:24:24.627Z,369
2022-10-15T12:29:24.693Z,335
2022-10-15T12:34:24.641Z,295
2022-10-15T12:39:47.526Z,271
2022-10-15T12:44:27.665Z,302
2022-10-15T12:49:24.620Z,369
2022-10-15T12:54:24.602Z,320
2022-10-15T12:59:24.630Z,328
2022-10-15T13:04:24.691Z,323
2022-10-15T13:09:24.600Z,308
2022-10-15T13:14:24.654Z,302
2022-10-15T13:19:24.607Z,291
2022-10-15T13:24:24.588Z,348
2022-10-15T13:29:24.666Z,299
2022-10-15T13:34:29.733Z,301
2022-10-15T13:39:24.765Z,312
2022-10-15T13:54:24.648Z,299
2022-10-15T13:59:24.770Z,294
2022-10-15T14:04:24.744Z,306
2022-10-15T14:19:24.756Z,299
2022-10-15T14:24:24.638Z,295
2022-10-15T14:29:24.825Z,288
2022-10-15T14:34:24.764Z,300
2022-10-15T14:39:24.663Z,275
2022-10-15T14:44:24.690Z,283
2022-10-15T14:49:24.648Z,296
2022-10-15T14:54:24.691Z,293
2022-10-15T14:59:24.623Z,284
2022-10-15T15:04:24.600Z,277
2022-10-15T15:09:24.608Z,271
2022-10-15T15:14:24.630Z,275
2022-10-15T15:19:24.849Z,271
2022-10-15T15:24:24.606Z,273
2022-10-15T15:29:24.748Z,271
2022-10-15T15:34:24.672Z,271
2022-10-15T15:39:24.625Z,0
2022-10-15T15:44:24.626Z,266
2022-10-15T15:49:24.704Z,265
2022-10-15T15:54:24.724Z,266
2022-10-15T15:59:24.746Z,265
2022-10-15T16:14:24.779Z,0
2022-10-15T16:19:24.677Z,0
2022-10-15T16:24:24.687Z,0
2022-10-15T16:29:24.669Z,0
2022-10-15T16:34:24.647Z,0
2022-10-15T16:39:24.647Z,0
2022-10-15T16:44:24.704Z,0
2022-10-15T16:49:24.688Z,0
2022-10-15T16:54:24.713Z,0
2022-10-15T16:59:24.657Z,0
2022-10-15T17:04:24.727Z,0
2022-10-15T17:09:24.701Z,0
2022-10-15T17:14:24.683Z,0
2022-10-15T17:19:26.523Z,0
2022-10-15T17:24:24.713Z,0
2022-10-15T17:29:27.692Z,0
2022-10-15T17:34:24.734Z,0
2022-10-15T17:39:24.639Z,0
2022-10-15T17:44:24.674Z,0
2022-10-15T17:49:24.681Z,0
2022-10-15T17:54:24.672Z,0
2022-10-15T17:59:24.706Z,0
2022-10-15T18:04:24.719Z,0
2022-10-15T18:09:24.679Z,0
2022-10-15T18:14:24.671Z,0
2022-10-15T18:19:24.684Z,0
2022-10-15T18:24:24.661Z,0
2022-10-15T18:29:24.698Z,0
2022-10-15T18:34:24.679Z,0
2022-10-15T18:39:24.733Z,0
2022-10-15T18:44:24.681Z,0
2022-10-15T18:49:24.706Z,0
2022-10-15T18:54:24.698Z,0
2022-10-15T18:59:24.703Z,0
2022-10-15T19:04:24.709Z,0
2022-10-15T19:09:24.768Z,0
2022-10-15T19:14:24.688Z,0
2022-10-15T19:19:24.719Z,0
2022-10-15T19:24:24.703Z,0
2022-10-15T19:29:24.701Z,0
2022-10-15T19:34:24.722Z,0
2022-10-15T19:39:24.732Z,0
2022-10-15T19:44:24.794Z,0
2022-10-15T19:49:24.725Z,0
2022-10-15T19:59:24.730Z,0
2022-10-15T20:04:24.845Z,0
2022-10-15T20:09:24.853Z,0
2022-10-15T20:14:24.767Z,0
2022-10-15T20:19:24.741Z,0
2022-10-15T20:24:24.719Z,0
2022-10-15T20:29:24.800Z,0
2022-10-15T20:34:24.717Z,0
2022-10-15T20:39:24.737Z,0
2022-10-15T20:44:24.743Z,0
2022-10-15T20:49:24.672Z,0
2022-10-15T20:54:24.717Z,0
2022-10-15T20:59:29.369Z,0
2022-10-15T21:04:24.768Z,0
2022-10-15T21:09:24.773Z,0
2022-10-15T21:14:24.747Z,0
2022-10-15T21:19:24.803Z,0
2022-10-15T21:24:24.727Z,0
2022-10-15T21:29:24.820Z,0
2022-10-15T21:34:24.729Z,0
2022-10-15T21:39:24.729Z,0
2022-10-15T21:44:24.733Z,0
2022-10-15T21:49:24.721Z,0
2022-10-15T21:54:24.753Z,0
2022-10-15T21:59:24.728Z,0
2022-10-15T22:04:24.718Z,0
2022-10-15T22:09:24.863Z,0
2022-10-15T22:14:24.928Z,0
2022-10-15T22:19:24.748Z,0
2022-10-15T22:24:24.758Z,0
2022-10-15T22:29:24.742Z,0
2022-10-15T22:34:24.745Z,0
2022-10-15T22:39:24.773Z,0
2022-10-15T22:44:24.728Z,0
2022-10-15T22:49:24.757Z,0
2022-10-15T22:54:24.772Z,0
2022-10-15T22:59:24.740Z,0
2022-10-15T23:04:24.782Z,0
2022-10-15T23:09:24.793Z,0
2022-10-15T23:14:24.731Z,0
2022-10-15T23:19:24.789Z,0
2022-10-15T23:24:24.789Z,0
2022-10-15T23:29:24.762Z,0
2022-10-15T23:34:24.761Z,0
2022-10-15T23:39:24.774Z,0
2022-10-15T23:44:24.806Z,0
2022-10-15T23:49:24.745Z,0
2022-10-15T23:54:24.827Z,0
2022-10-15T23:59:24.710Z,0
